Portada
METAR-TAF:

METAR-TAF

Aeroports :

Boryspil, Ucraïna

latitud: 50-20N, longitud: 030-58E, altitud: 121 m

Observació

L'informe es va fer fa 23 minuts, a les 19:30 UTC
Vent 6 kt del Nord
Temperatura 17°C
Humitat 68%
Pressió 1025 hPa
Visibilitat 10 km o més
sense núvols per sota de 1500 mi sense presència de cumulonimbus.

METAR: UKBB 241930Z 01003MPS CAVOK 17/11 Q1025 R88/CLRD// NOSIG

Hora: 22:53 (19:53 UTC)

Pronòstic

L'informe es va fer fa 2 hores i 52 minuts, a les 17:01 UTC
Pronòstic vàlid del 24 a les 18 UTC al 25 a les 18 UTC
Vent 6 kt del Nord/Nord-Est amb ràfegues de 16 kt
Visibilitat 10 km o més
Núvols disperses a una alçada de 4000 ft
Temporalment
l' 24 a les 22 UTC al 25 a les 05 UTC
Visibilitat: 2000 m
Núvols disperses a una alçada de 700 ft
boirina
Temporalment
l' 25 a les 06 UTC al 25 a les 16 UTC
Vent 12 kt del Est/Nord-Est amb ràfegues de 21 kt

TAF: UKBB 241701Z 2418/2518 03003G08MPS 9999 SCT040 TX28/2512Z TN13/2503Z TEMPO 2422/2505 2000 BR SCT007 TEMPO 2506/2516 06006G11MPS

Observacions i pronòstics meteorològics de més de 4000 aeroports (METAR i TAF).

Les estacions disponibles són els punts grocs i vermells al mapa.

Posi el ratolí al punt desitjat per veure el nom de l'estació.

Feu clic per veure les observacions i els pronòstics meteorològics.

Per canviar el mapa: feu clic els botons verds amb una creu de color negre per apropar; al botó verd amb un guió per allunyar la imatge; o en les fletxes verdes per a mapes adjacents.


METAR-TAF: